This is the latest recevied weather packets stored in our database for station/object K6CED. If no packets are shown the sender has not sent any weather packets the latest 10 day(s).
| Time | Temp. | Humidity | Pressure | Rain* | Wind** | Luminosity | Snow |
|---|---|---|---|---|---|---|---|
| 1778087346 | 17.78° C | 57% | 1020.7 hPa | 0 mm | - | 734 W/m² | - |
| 1778087041 | 16.67° C | 59% | 1020.9 hPa | 0 mm | - | 721 W/m² | - |
| 1778086735 | 16.67° C | 63% | 1020.7 hPa | 0 mm | - | 709 W/m² | - |
| 1778086433 | 17.22° C | 62% | 1020.7 hPa | 0 mm | - | 696 W/m² | - |
| 1778086129 | 17.22° C | 62% | 1020.7 hPa | 0 mm | - | 683 W/m² | - |
| 1778085825 | 17.78° C | 61% | 1020.8 hPa | 0 mm | - | 392 W/m² | - |
| 1778085523 | 16.67° C | 63% | 1020.7 hPa | 0 mm | - | 652 W/m² | - |
| 1778085218 | 16.11° C | 65% | 1020.9 hPa | 0 mm | - | 636 W/m² | - |
| 1778084913 | 16.67° C | 67% | 1020.8 hPa | 0 mm | - | 626 W/m² | - |
| 1778084612 | 16.11° C | 68% | 1020.7 hPa | 0 mm | - | 609 W/m² | - |
| 1778084309 | 16.67° C | 67% | 1020.7 hPa | 0 mm | - | 592 W/m² | - |
| 1778084006 | 16.67° C | 68% | 1020.8 hPa | 0 mm | - | 574 W/m² | - |
| 1778083704 | 15.56° C | 70% | 1020.7 hPa | 0 mm | - | 563 W/m² | - |
| 1778083400 | 14.44° C | 75% | 1020.9 hPa | 0 mm | - | 537 W/m² | - |
| 1778083099 | 14.44° C | 75% | 1020.8 hPa | 0 mm | - | 511 W/m² | - |
| 1778082795 | 13.89° C | 76% | 1020.7 hPa | 0 mm | - | 593 W/m² | - |
| 1778081668 | 13.89° C | 78% | 1020.7 hPa | 0 mm | - | 340 W/m² | - |
| 1778081365 | 13.33° C | 79% | 1020.8 hPa | 0 mm | - | 316 W/m² | - |
| 1778081062 | 13.89° C | 78% | 1020.7 hPa | 0 mm | - | 330 W/m² | - |
| 1778080761 | 12.78° C | 81% | 1020.9 hPa | 0 mm | - | 346 W/m² | - |
| 1778080457 | 12.78° C | 82% | 1020.7 hPa | 0 mm | - | 342 W/m² | - |
| 1778080155 | 12.22° C | 83% | 1020.8 hPa | 0 mm | - | 302 W/m² | - |
| 1778079851 | 11.67° C | 83% | 1020.8 hPa | 0 mm | - | 261 W/m² | - |
| 1778079548 | 12.22° C | 82% | 1020.7 hPa | 0 mm | - | 238 W/m² | - |
| 1778079244 | 11.67° C | 83% | 1020.9 hPa | 0 mm | - | 217 W/m² | - |
* Rain latest hour (hover to see other rain measurements)
** Current wind speed in m/s (hover to see current wind gust speed)